Flight Track Log - Related Links

Times and Time Zones

All times are in EDT time to prevent confusion due to time zone crossing. See the AWI3602 flight status page for this flight to view local times or setup timezone preferences in your user account.

Time Position Orientation Groundspeed Altitude Reporting Facility
EDT Latitude Longitude Course Direction KTS MPH feet Rate Location/Type
Fri 07:33:00 AM 33.5906 -82.0000 North  Level FlightAware Approximate
Fri 07:34:00 AM 33.6646 -82.0194 346° North  Level FlightAware Approximate
Fri 07:34:58 AM 33.4817 -82.0539 347° North 301 346 7,800  Level Atlanta Center
Fri 07:35:00 AM 33.7384 -82.0415 346° North  Level FlightAware Approximate
Fri 07:35:58 AM 33.5592 -82.0619 355° North 286 329 9,700  Level Atlanta Center
Fri 07:36:00 AM 33.8129 -82.0592 351° North  Level FlightAware Approximate
Fri 07:36:58 AM 33.6428 -82.0750 353° North 286 329 11,300  Level Atlanta Center
Fri 07:37:00 AM 33.8878 -82.0742 351° North  Level FlightAware Approximate
Fri 07:37:58 AM 33.7328 -82.0856 354° North 303 349 12,000  Level Atlanta Center
Fri 07:38:00 AM 33.9632 -82.0833 North  Level FlightAware Approximate
Fri 07:38:58 AM 33.8247 -82.0983 353° North 317 365 12,000  Level Atlanta Center
Fri 07:39:00 AM 34.0385 -82.0953 352° North  Level FlightAware Approximate
Fri 07:39:58 AM 33.9147 -82.1089 354° North 322 371 12,000  Level Atlanta Center
Fri 07:40:00 AM 34.1131 -82.1126 347° North  Level FlightAware Approximate
Fri 07:40:58 AM 34.0067 -82.1217 353° North 332 382 12,000  Level Atlanta Center
Fri 07:41:58 AM 34.0903 -82.1275 357° North 332 382 12,000  Level Atlanta Center
Fri 07:42:58 AM 34.1686 -82.0678 32° Northeast 321 369 12,000  Level Atlanta Center
Fri 07:43:58 AM 34.2447 -82.0008 36° Northeast 312 359 12,000  Level Atlanta Center
Fri 07:44:58 AM 34.3228 -81.9261 38° Northeast 334 384 12,000  Level Atlanta Center
Fri 07:45:58 AM 34.4031 -81.8536 37° Northeast 353 406 12,000  Level Atlanta Center
Fri 07:46:58 AM 34.4808 -81.7783 39° Northeast 358 412 12,000  Level Atlanta Center
Fri 07:47:58 AM 34.5611 -81.7056 37° Northeast 363 418 12,000  Level Atlanta Center
Fri 07:48:36 AM 34.6244 -81.6483 37° Northeast 367 422 12,000  Level Atlanta Center
Fri 07:48:54 AM 34.6492 -81.6250 38° Northeast 368 423 12,000  Level Atlanta Center
Fri 07:49:55 AM 34.7228 -81.5519 39° Northeast 327 376 12,000  Level Atlanta Center
Fri 07:50:57 AM 34.7819 -81.4794 45° Northeast 297 342 12,000  Level Atlanta Center
Fri 07:51:57 AM 34.8428 -81.4042 45° Northeast 310 357 12,000  Level Atlanta Center
Fri 07:52:58 AM 34.8956 -81.3367 46° Northeast 303 349 12,000 -154 Level Atlanta Center
Fri 07:53:54 AM 34.9564 -81.2586 46° Northeast 309 356 11,700 -878 Descending Atlanta Center
Fri 07:55:01 AM 35.0233 -81.1728 46° Northeast 304 350 10,200 -1,306 Descending Atlanta Center
Fri 07:55:58 AM 35.0678 -81.1103 49° Northeast 303 349 9,000 -615 Descending Atlanta Center
Fri 07:56:58 AM 35.1272 -81.0625 33° Northeast 274 315 9,000 -476 Level Atlanta Center
Fri 07:58:04 AM 35.2108 -81.0722 355° North 238 274 8,000 -1,228 Descending Atlanta Center
Fri 07:59:05 AM 35.2797 -81.0747 358° North 243 280 6,400 -1,574 Descending Atlanta Center
Fri 08:00:06 AM 35.3447 -81.0803 356° North 237 273 4,800 -1,574 Descending Atlanta Center

Login

Don't have an account? Register now (free) for customized features, flight alerts, and more!